Time;durP1;ratioP1;P1;durP2;ratioP2;P2;SDS_P1;SDS_P2;PMS_P1;PMS_P2;Temp;Humidity;BMP_temperature;BMP_pressure;BME280_temperature;BME280_humidity;BME280_pressure;Samples;Min_cycle;Max_cycle;Signal;HPM_P1;HPM_P2
2022/06/21 00:01:51;;;;;;;7.47;3.40;;;;;;;17.83;68.37;98470.09;5043513;28;20029;-64
2022/06/21 00:04:17;;;;;;;8.18;3.45;;;;;;;17.82;67.78;98476.31;5042930;28;20114;-64
2022/06/21 00:06:43;;;;;;;6.38;4.03;;;;;;;17.80;68.55;98471.19;5050348;28;20421;-63
2022/06/21 00:09:12;;;;;;;6.25;3.75;;;;;;;17.78;68.23;98475.69;5034231;28;20021;-63
2022/06/21 00:11:37;;;;;;;7.10;3.47;;;;;;;17.82;68.79;98482.38;5050449;28;20076;-63
2022/06/21 00:14:03;;;;;;;10.10;3.47;;;;;;;17.78;69.04;98467.81;5041996;28;20419;-63
2022/06/21 00:16:30;;;;;;;7.82;3.90;;;;;;;17.58;69.53;98428.16;5039484;28;20417;-62
2022/06/21 00:18:56;;;;;;;11.05;3.95;;;;;;;17.81;69.30;98456.31;5035790;28;20067;-62
2022/06/21 00:21:27;;;;;;;6.28;3.60;;;;;;;17.54;68.92;98420.66;5049697;28;20028;-62
2022/06/21 00:23:54;;;;;;;6.90;3.47;;;;;;;17.70;69.04;98468.38;5061633;28;20029;-62
2022/06/21 00:26:22;;;;;;;9.05;3.72;;;;;;;17.67;69.27;98460.75;5039326;28;20029;-63
2022/06/21 00:28:47;;;;;;;8.32;3.83;;;;;;;17.67;69.59;98467.75;5033983;28;20033;-63
2022/06/21 00:31:23;;;;;;;8.35;3.75;;;;;;;17.61;68.77;98450.69;5042913;28;20488;-63
2022/06/21 00:33:49;;;;;;;9.18;3.80;;;;;;;17.72;68.50;98463.84;5054552;28;20087;-63
2022/06/21 00:36:21;;;;;;;7.93;3.28;;;;;;;17.72;68.92;98463.84;5073490;28;20094;-63
2022/06/21 00:38:47;;;;;;;;;;;;;;;17.67;69.69;98460.75;5042682;28;20128;-63
2022/06/21 00:41:16;;;;;;;6.57;4.10;;;;;;;17.41;68.98;98418.91;5052186;28;20008;-63
2022/06/21 00:43:46;;;;;;;7.93;3.85;;;;;;;17.65;69.06;98451.31;5043853;28;20080;-63
2022/06/21 00:46:25;;;;;;;7.05;3.38;;;;;;;17.70;69.51;98457.91;5037740;28;20021;-63
2022/06/21 00:48:52;;;;;;;7.65;3.55;;;;;;;17.41;69.22;98416.28;5033815;28;20175;-64
2022/06/21 00:51:29;;;;;;;9.25;3.95;;;;;;;17.57;69.00;98429.13;5048619;28;20017;-64
2022/06/21 00:54:43;;;;;;;6.05;3.20;;;;;;;17.71;69.65;98456.13;5061643;28;20045;-64
2022/06/21 00:57:16;;;;;;;8.32;3.53;;;;;;;17.46;70.46;98415.09;5043480;28;20170;-63
2022/06/21 00:59:42;;;;;;;6.50;3.53;;;;;;;17.71;69.83;98451.69;5053402;28;20458;-64
2022/06/21 01:02:37;;;;;;;6.70;3.53;;;;;;;17.72;70.69;98453.38;5057380;28;20088;-64
2022/06/21 01:05:03;;;;;;;5.88;3.67;;;;;;;17.70;70.67;98452.66;5037586;28;20132;-64
2022/06/21 01:07:32;;;;;;;7.05;3.05;;;;;;;17.50;70.48;98429.66;5034993;28;20033;-63
2022/06/21 01:10:01;;;;;;;8.18;3.38;;;;;;;17.68;70.52;98461.56;5045994;28;20033;-63
2022/06/21 01:12:36;;;;;;;6.05;3.78;;;;;;;17.34;70.36;98422.88;5039430;28;20104;-63
2022/06/21 01:15:09;;;;;;;8.65;3.97;;;;;;;17.63;70.50;98474.13;5033209;28;20398;-63
2022/06/21 01:17:36;;;;;;;4.72;3.50;;;;;;;17.54;70.32;98475.63;5040554;28;20372;-61
2022/06/21 01:20:06;;;;;;;5.47;3.55;;;;;;;17.55;69.84;98486.00;5045694;28;20409;-61
2022/06/21 01:22:43;;;;;;;8.68;3.58;;;;;;;17.23;69.30;98420.19;5045160;28;20509;-62
2022/06/21 01:25:26;;;;;;;7.00;3.65;;;;;;;17.58;69.77;98464.81;5046698;28;20079;-61
2022/06/21 01:27:55;;;;;;;7.18;4.20;;;;;;;17.59;69.02;98452.59;5059514;28;20031;-61
2022/06/21 01:30:26;;;;;;;8.15;4.18;;;;;;;17.40;69.13;98412.00;5041618;28;20048;-62
2022/06/21 01:32:52;;;;;;;5.47;4.07;;;;;;;17.54;67.88;98431.97;5069266;28;20044;-62
2022/06/21 01:35:46;;;;;;;11.30;4.03;;;;;;;17.31;68.21;98380.41;5066098;28;20048;-62
2022/06/21 01:38:17;;;;;;;6.07;4.00;;;;;;;17.56;67.16;98421.41;5053941;28;20048;-64
2022/06/21 01:40:46;;;;;;;6.13;3.47;;;;;;;17.25;67.18;98358.94;5053935;28;20489;-64
2022/06/21 01:43:16;;;;;;;8.80;4.03;;;;;;;17.56;67.77;98401.28;5048813;28;20030;-62
2022/06/21 01:45:52;;;;;;;8.60;4.10;;;;;;;17.58;67.53;98390.69;5052586;28;20075;-62
2022/06/21 01:48:21;;;;;;;4.75;3.85;;;;;;;17.62;67.64;98384.28;5054588;28;20056;-62
2022/06/21 01:50:49;;;;;;;9.32;4.45;;;;;;;17.45;68.17;98364.56;5034365;28;20036;-62
2022/06/21 01:53:17;;;;;;;5.57;3.83;;;;;;;17.55;67.37;98373.41;5044779;28;20470;-62
2022/06/21 01:55:50;;;;;;;7.47;3.72;;;;;;;17.56;69.22;98375.09;5043239;28;20033;-62
2022/06/21 01:58:19;;;;;;;6.78;3.92;;;;;;;17.61;68.85;98377.38;5046424;28;20033;-62
2022/06/21 02:00:52;;;;;;;7.43;3.72;;;;;;;17.34;69.23;98336.50;5049480;28;20478;-62
2022/06/21 02:03:21;;;;;;;7.28;3.47;;;;;;;17.20;70.66;98326.19;5035910;28;20497;-62
2022/06/21 02:05:51;;;;;;;8.70;3.40;;;;;;;17.24;66.76;98349.44;5041472;28;20090;-64
2022/06/21 02:08:21;;;;;;;6.10;3.33;;;;;;;17.51;67.84;98394.69;5038049;28;20057;-64
2022/06/21 02:10:56;;;;;;;6.72;3.30;;;;;;;17.22;66.22;98340.03;5042706;28;20029;-64
2022/06/21 02:13:31;;;;;;;7.03;3.30;;;;;;;17.17;66.19;98342.13;5037642;28;20032;-64
2022/06/21 02:16:09;;;;;;;4.88;3.30;;;;;;;17.46;67.68;98384.56;5051205;28;20025;-64
2022/06/21 02:18:41;;;;;;;5.78;3.50;;;;;;;17.17;68.40;98348.19;5051545;28;20029;-64
2022/06/21 02:21:18;;;;;;;4.50;2.30;;;;;;;17.47;67.32;98398.47;5036779;28;20470;-64
2022/06/21 02:23:49;;;;;;;5.35;3.05;;;;;;;17.15;67.18;98351.88;5044137;28;20035;-64
2022/06/21 02:26:15;;;;;;;6.80;2.80;;;;;;;17.41;66.18;98403.22;5065786;28;20090;-64
2022/06/21 02:28:41;;;;;;;7.20;2.85;;;;;;;17.36;66.21;98399.25;5066690;28;20040;-64
2022/06/21 02:31:09;;;;;;;5.00;2.92;;;;;;;17.36;67.15;98404.47;5052199;28;20104;-64
2022/06/21 02:33:36;;;;;;;6.90;3.00;;;;;;;17.10;68.26;98373.09;5047327;28;20057;-63
2022/06/21 02:36:07;;;;;;;4.15;2.78;;;;;;;17.07;68.41;98363.69;5032515;28;20407;-63
2022/06/21 02:38:37;;;;;;;3.80;2.65;;;;;;;17.26;68.76;98388.59;5044247;28;20049;-64
2022/06/21 02:41:06;;;;;;;6.40;3.17;;;;;;;17.31;68.46;98399.53;5040429;28;20041;-63
2022/06/21 02:43:40;;;;;;;7.10;2.80;;;;;;;17.24;69.25;98396.53;5037698;28;20021;-62
2022/06/21 02:46:18;;;;;;;4.93;3.38;;;;;;;16.88;70.22;98356.28;5033747;28;20387;-62
2022/06/21 02:48:51;;;;;;;5.28;2.63;;;;;;;16.84;71.08;98365.25;5050661;28;20033;-63
2022/06/21 02:51:21;;;;;;;4.00;2.72;;;;;;;16.81;71.91;98357.59;5043312;28;20033;-63
2022/06/21 02:54:17;;;;;;;4.68;2.83;;;;;;;17.07;73.20;98416.03;5047374;28;20065;-63
2022/06/21 02:56:48;;;;;;;3.70;2.90;;;;;;;16.93;74.59;98421.38;5051110;28;20433;-64
2022/06/21 02:59:15;;;;;;;4.05;2.78;;;;;;;16.95;74.37;98421.25;5051591;28;20029;-64
2022/06/21 03:01:55;;;;;;;5.38;3.22;;;;;;;16.54;74.86;98374.22;5055101;28;20037;-62
2022/06/21 03:04:30;;;;;;;6.43;3.20;;;;;;;16.58;74.73;98381.88;5048576;28;20048;-63
2022/06/21 03:06:55;;;;;;;6.00;3.30;;;;;;;16.83;75.20;98417.66;5049267;28;20118;-64
2022/06/21 03:09:23;;;;;;;6.43;3.25;;;;;;;16.54;76.09;98370.78;5045334;28;20486;-64
2022/06/21 03:11:53;;;;;;;8.82;3.85;;;;;;;16.78;77.57;98417.13;5048736;28;20532;-63
2022/06/21 03:14:23;;;;;;;9.73;4.28;;;;;;;16.77;77.24;98405.81;5038353;28;20051;-64
2022/06/21 03:16:50;;;;;;;7.07;4.22;;;;;;;16.73;77.67;98401.75;5033673;28;20053;-64
2022/06/21 03:19:52;;;;;;;8.23;4.10;;;;;;;16.83;79.01;98412.41;5045702;28;20021;-64
2022/06/21 03:22:25;;;;;;;7.95;4.13;;;;;;;16.56;78.62;98366.31;5029256;28;20084;-63
2022/06/21 03:24:55;;;;;;;7.13;4.32;;;;;;;16.53;78.14;98358.66;5031838;28;20458;-63
2022/06/21 03:27:28;;;;;;;6.38;4.00;;;;;;;16.51;79.16;98357.94;5034959;28;20421;-63
2022/06/21 03:29:55;;;;;;;7.53;4.28;;;;;;;16.87;77.78;98406.91;5052227;28;20033;-63
2022/06/21 03:32:22;;;;;;;7.38;4.50;;;;;;;16.89;77.97;98402.41;5038971;28;20029;-63
2022/06/21 03:34:50;;;;;;;5.45;4.20;;;;;;;16.91;78.20;98391.84;5048507;28;20425;-63
2022/06/21 03:37:17;;;;;;;7.05;4.18;;;;;;;16.89;78.68;98391.13;5058316;28;20036;-63
2022/06/21 03:42:34;;;;;;;9.07;4.47;;;;;;;16.87;81.45;98390.34;5045648;28;20080;-63
2022/06/21 03:45:24;;;;;;;6.17;4.50;;;;;;;16.93;81.64;98392.59;5035576;28;20506;-65
2022/06/21 03:48:03;;;;;;;12.65;5.20;;;;;;;16.66;81.03;98342.97;5035211;28;20040;-65
2022/06/21 03:50:38;;;;;;;7.72;4.65;;;;;;;16.93;80.36;98387.38;5043401;28;20119;-65
2022/06/21 03:53:17;;;;;;;8.43;5.28;;;;;;;17.01;80.41;98394.66;5052150;28;20021;-65
2022/06/21 03:56:01;;;;;;;7.88;5.75;;;;;;;16.99;81.54;98394.78;5054389;28;20035;-65
2022/06/21 03:58:47;;;;;;;6.28;5.25;;;;;;;16.97;81.65;98399.25;5054671;28;20031;-65
2022/06/21 04:01:31;;;;;;;9.02;5.50;;;;;;;16.98;79.80;98389.66;5048507;28;20033;-65
2022/06/21 04:04:06;;;;;;;6.47;4.88;;;;;;;17.05;79.52;98391.72;5037823;28;20371;-65
2022/06/21 04:06:52;;;;;;;11.85;5.70;;;;;;;16.81;79.87;98336.69;5053908;28;20021;-65
2022/06/21 04:09:28;;;;;;;9.95;5.75;;;;;;;17.13;79.25;98383.38;5053707;28;20485;-65
2022/06/21 04:12:08;;;;;;;7.30;5.65;;;;;;;17.18;78.59;98375.19;5036342;28;20026;-65
2022/06/21 04:14:42;;;;;;;13.52;6.00;;;;;;;17.08;76.13;98381.06;5066948;28;20123;-64
2022/06/21 04:17:21;;;;;;;11.48;5.32;;;;;;;17.17;77.04;98371.75;5058813;28;20371;-65
2022/06/21 04:20:00;;;;;;;7.85;4.90;;;;;;;16.95;79.03;98321.88;5058361;28;20052;-66
2022/06/21 04:22:42;;;;;;;8.52;5.13;;;;;;;17.06;74.60;98361.19;5048190;28;20494;-66
2022/06/21 04:25:29;;;;;;;9.38;4.47;;;;;;;17.20;75.13;98362.81;5051639;28;20468;-66
2022/06/21 04:28:15;;;;;;;8.93;5.00;;;;;;;17.12;73.56;98355.53;5052629;28;20095;-65
2022/06/21 04:30:48;;;;;;;9.77;4.28;;;;;;;16.94;74.57;98317.56;5052806;28;20047;-63
2022/06/21 04:33:18;;;;;;;6.55;4.03;;;;;;;16.96;74.69;98302.59;5035501;28;20097;-63
2022/06/21 04:36:25;;;;;;;6.13;3.22;;;;;;;17.29;72.88;98346.50;5052705;28;20402;-64
2022/06/21 04:39:03;;;;;;;5.13;3.33;;;;;;;17.31;74.15;98344.59;5046448;28;20124;-64
2022/06/21 04:41:42;;;;;;;5.32;4.00;;;;;;;17.05;74.47;98291.50;5067259;28;20516;-64
2022/06/21 04:44:36;;;;;;;6.15;3.47;;;;;;;17.32;72.47;98341.03;5048151;28;20030;-64
2022/06/21 04:47:23;;;;;;;7.63;4.00;;;;;;;17.07;69.23;98336.69;5041854;28;20493;-63
2022/06/21 04:49:57;;;;;;;9.63;4.43;;;;;;;17.28;70.99;98326.50;5034913;28;20075;-62
2022/06/21 04:52:33;;;;;;;12.75;4.88;;;;;;;17.31;71.47;98334.13;5048258;28;20029;-63
2022/06/21 04:54:59;;;;;;;9.05;4.35;;;;;;;17.39;71.97;98323.94;5047554;28;20028;-61
2022/06/21 04:57:28;;;;;;;6.75;3.95;;;;;;;17.18;71.01;98331.53;5042646;28;20025;-63
2022/06/21 04:59:59;;;;;;;6.70;3.88;;;;;;;17.04;71.86;98280.19;5052359;28;20036;-64
2022/06/21 05:02:29;;;;;;;6.25;3.55;;;;;;;17.19;72.41;98277.44;5051340;28;20107;-63
2022/06/21 05:05:19;;;;;;;7.55;4.57;;;;;;;17.55;70.75;98322.84;5051279;28;20021;-64
2022/06/21 05:07:49;;;;;;;6.90;3.88;;;;;;;17.66;70.31;98325.53;5044118;28;20084;-64
2022/06/21 05:10:24;;;;;;;6.03;3.28;;;;;;;17.73;70.69;98342.47;5049382;28;20100;-64
2022/06/21 05:12:52;;;;;;;10.02;3.75;;;;;;;17.69;72.25;98321.84;5052124;28;20032;-62
2022/06/21 05:15:44;;;;;;;8.98;3.70;;;;;;;17.79;69.13;98330.69;5054710;28;20044;-63
2022/06/21 05:18:20;;;;;;;8.48;4.15;;;;;;;17.47;70.10;98285.91;5053508;28;20037;-63
2022/06/21 05:20:57;;;;;;;7.05;4.13;;;;;;;17.81;69.42;98331.41;5052191;28;20029;-63
2022/06/21 05:23:24;;;;;;;7.43;3.75;;;;;;;18.03;68.27;98327.28;5032619;28;20021;-65
2022/06/21 05:25:50;;;;;;;7.05;4.70;;;;;;;17.94;67.31;98331.38;5048925;28;20024;-64
2022/06/21 05:28:29;;;;;;;8.85;4.70;;;;;;;17.89;68.74;98328.25;5052728;28;20036;-64
2022/06/21 05:30:57;;;;;;;10.00;4.53;;;;;;;17.79;66.72;98280.13;5041194;28;20025;-63
2022/06/21 05:33:33;;;;;;;7.47;4.18;;;;;;;18.24;68.25;98330.03;5051075;28;20056;-63
2022/06/21 05:36:06;;;;;;;8.30;4.60;;;;;;;18.15;67.99;98318.47;5050723;28;20109;-63
2022/06/21 05:38:35;;;;;;;8.02;4.80;;;;;;;18.06;68.34;98335.72;5042397;28;20401;-63
2022/06/21 05:41:29;;;;;;;7.13;4.18;;;;;;;18.02;67.93;98279.25;5058809;28;20041;-63
2022/06/21 05:44:08;;;;;;;7.65;4.10;;;;;;;18.22;69.19;98324.91;5051705;28;20479;-63
2022/06/21 05:46:38;;;;;;;7.13;4.53;;;;;;;18.29;67.98;98322.69;5057675;28;20102;-64
2022/06/21 05:49:08;;;;;;;6.18;4.25;;;;;;;18.48;67.91;98326.53;5056706;28;20029;-64
2022/06/21 05:51:34;;;;;;;8.10;3.90;;;;;;;18.63;68.19;98326.19;5056878;28;20024;-65
2022/06/21 05:54:13;;;;;;;5.07;3.90;;;;;;;18.74;68.77;98328.00;5063938;28;20032;-66
2022/06/21 05:56:39;;;;;;;7.90;4.20;;;;;;;18.81;68.49;98315.22;5050686;28;20037;-64
2022/06/21 05:59:10;;;;;;;9.00;4.38;;;;;;;18.94;68.11;98323.00;5052127;28;20021;-64
2022/06/21 06:01:58;;;;;;;7.65;4.32;;;;;;;18.96;68.09;98310.63;5054541;28;20399;-65
2022/06/21 06:04:37;;;;;;;6.10;4.40;;;;;;;18.74;67.34;98272.91;5051009;28;20031;-64
2022/06/21 06:07:04;;;;;;;6.70;3.97;;;;;;;18.95;66.74;98312.41;5052754;28;20079;-65
2022/06/21 06:09:37;;;;;;;6.20;3.47;;;;;;;18.84;63.35;98312.38;5057867;28;20474;-65
2022/06/21 06:12:19;;;;;;;5.72;3.55;;;;;;;18.55;63.98;98267.44;5051908;28;20505;-66
2022/06/21 06:14:55;;;;;;;6.38;3.75;;;;;;;18.97;64.81;98312.28;5067546;28;20029;-66
2022/06/21 06:17:34;;;;;;;4.68;3.67;;;;;;;18.83;65.81;98281.03;5058028;28;20044;-64
2022/06/21 06:20:20;;;;;;;6.68;2.97;;;;;;;18.83;65.71;98275.78;5047739;28;20033;-64
2022/06/21 06:22:59;;;;;;;8.82;3.47;;;;;;;18.91;65.92;98304.88;5058924;28;20024;-63
2022/06/21 06:25:44;;;;;;;8.70;4.00;;;;;;;18.60;65.00;98266.13;5066314;28;20025;-64
2022/06/21 06:28:26;;;;;;;8.48;4.57;;;;;;;18.45;65.72;98265.53;5054359;28;20489;-64
2022/06/21 06:31:17;;;;;;;9.80;4.35;;;;;;;18.42;65.11;98323.41;5063850;28;20041;-63
2022/06/21 06:33:55;;;;;;;7.15;4.25;;;;;;;18.39;65.82;98336.75;5045872;28;20075;-63
2022/06/21 06:36:27;;;;;;;5.93;4.13;;;;;;;18.58;67.69;98323.09;5048638;28;20021;-64
2022/06/21 06:38:55;;;;;;;6.90;3.88;;;;;;;18.54;67.16;98313.81;5038482;28;20088;-65
2022/06/21 06:41:43;;;;;;;7.18;4.07;;;;;;;18.60;66.59;98322.97;5052942;28;20033;-65
2022/06/21 06:44:12;;;;;;;6.22;3.72;;;;;;;18.61;67.17;98325.50;5041414;28;20033;-65
2022/06/21 06:46:43;;;;;;;6.38;3.65;;;;;;;18.50;66.11;98338.56;5043048;28;20462;-63
2022/06/21 06:49:18;;;;;;;4.20;3.30;;;;;;;18.57;67.50;98321.44;5049146;28;20033;-64
2022/06/21 06:52:02;;;;;;;9.88;4.47;;;;;;;18.28;65.49;98308.75;5049812;28;20082;-64
2022/06/21 06:54:46;;;;;;;10.88;3.65;;;;;;;18.33;67.77;98323.28;5045081;28;20095;-65
2022/06/21 06:57:21;;;;;;;7.25;3.75;;;;;;;18.46;66.93;98331.91;5031036;28;20049;-65
2022/06/21 06:59:47;;;;;;;6.32;3.28;;;;;;;18.45;67.69;98323.19;5045636;28;20067;-62
2022/06/21 07:02:23;;;;;;;6.47;3.85;;;;;;;18.55;69.26;98328.56;5049575;28;20029;-62
2022/06/21 07:05:19;;;;;;;12.02;3.88;;;;;;;18.26;67.07;98279.19;5051420;28;20047;-62
2022/06/21 07:07:55;;;;;;;7.05;3.78;;;;;;;18.55;67.16;98327.72;5046414;28;20116;-62
2022/06/21 07:10:24;;;;;;;8.35;4.28;;;;;;;18.28;68.10;98289.56;5050885;28;20038;-62
2022/06/21 07:12:52;;;;;;;7.38;3.63;;;;;;;18.59;68.72;98331.78;5048776;28;20021;-63
2022/06/21 07:15:21;;;;;;;9.85;4.10;;;;;;;18.58;68.50;98340.59;5035394;28;20040;-63
2022/06/21 07:17:55;;;;;;;6.25;3.53;;;;;;;18.53;68.56;98322.59;5049652;28;20032;-62
2022/06/21 07:20:32;;;;;;;10.45;3.70;;;;;;;18.57;68.63;98316.19;5057797;28;20551;-62
2022/06/21 07:22:58;;;;;;;7.28;3.80;;;;;;;18.52;69.01;98314.88;5062851;28;20505;-61
2022/06/21 07:25:59;;;;;;;11.75;4.43;;;;;;;18.45;69.37;98304.84;5067584;28;20040;-62
2022/06/21 07:28:37;;;;;;;10.10;4.50;;;;;;;18.45;68.78;98304.00;5070279;28;20473;-61
2022/06/21 07:31:17;;;;;;;8.07;4.97;;;;;;;18.10;67.27;98245.47;5074393;28;20025;-62
2022/06/21 07:33:58;;;;;;;10.68;4.85;;;;;;;18.10;67.70;98240.22;5074467;28;20052;-62
2022/06/21 07:36:38;;;;;;;7.93;4.70;;;;;;;18.06;67.75;98241.41;5058879;28;20079;-62
2022/06/21 07:39:15;;;;;;;8.95;4.20;;;;;;;18.19;68.41;98261.44;5037016;28;20041;-62
2022/06/21 07:41:47;;;;;;;9.23;4.50;;;;;;;18.34;68.09;98293.50;5068667;28;20048;-63
2022/06/21 07:44:28;;;;;;;8.43;4.93;;;;;;;18.39;68.19;98294.81;5069632;28;20033;-62
2022/06/21 07:47:12;;;;;;;8.18;4.60;;;;;;;18.11;68.44;98248.91;5058546;28;20028;-63
2022/06/21 07:49:43;;;;;;;6.43;4.45;;;;;;;18.45;68.72;98301.38;5053416;28;20104;-63
2022/06/21 07:52:19;;;;;;;10.95;4.93;;;;;;;18.16;69.21;98248.56;5050066;28;20147;-64
2022/06/21 07:54:52;;;;;;;9.15;4.38;;;;;;;18.29;69.62;98271.09;5051119;28;20017;-63
2022/06/21 07:57:31;;;;;;;7.20;4.43;;;;;;;18.36;69.76;98284.56;5053568;28;20516;-63
2022/06/21 08:00:06;;;;;;;10.23;4.40;;;;;;;18.18;69.70;98244.88;5052879;28;20028;-63
2022/06/21 08:08:37;;;;;;;9.05;4.78;;;;;;;18.20;69.38;98249.97;5052559;28;20029;-65
2022/06/21 08:11:18;;;;;;;8.27;4.47;;;;;;;18.41;68.89;98274.56;5049181;28;20094;-65
2022/06/21 08:13:45;;;;;;;9.90;5.28;;;;;;;18.43;68.63;98296.25;5053205;28;20516;-63
2022/06/21 08:16:17;;;;;;;12.43;5.30;;;;;;;18.18;68.35;98244.03;5053863;28;20036;-64
2022/06/21 08:19:04;;;;;;;8.60;5.13;;;;;;;18.51;69.85;98290.41;5053641;28;20100;-65
2022/06/21 08:21:51;;;;;;;9.27;4.65;;;;;;;18.55;69.65;98293.66;5048286;28;20501;-64
2022/06/21 08:24:27;;;;;;;9.80;5.28;;;;;;;18.53;69.26;98301.63;5072565;28;20040;-64
2022/06/21 08:27:07;;;;;;;7.57;5.03;;;;;;;18.45;67.95;98304.00;5054078;28;20029;-65
2022/06/21 08:29:41;;;;;;;12.80;5.45;;;;;;;18.11;67.23;98244.50;5048579;28;20029;-65
2022/06/21 08:32:14;;;;;;;8.07;4.18;;;;;;;18.26;67.48;98262.63;5053649;28;20025;-66
2022/06/21 08:34:45;;;;;;;10.13;4.72;;;;;;;18.50;67.05;98301.03;5047774;28;20513;-64
2022/06/21 08:37:56;;;;;;;11.13;5.32;;;;;;;18.33;68.43;98299.69;5046152;28;20037;-63
2022/06/21 08:40:24;;;;;;;7.97;4.70;;;;;;;18.44;69.02;98292.69;5061148;28;20060;-62
2022/06/21 08:43:17;;;;;;;8.18;4.90;;;;;;;18.48;68.68;98292.44;5052795;28;20045;-62
2022/06/21 08:45:59;;;;;;;12.45;5.65;;;;;;;18.51;69.01;98303.53;5051261;28;20029;-61
2022/06/21 08:48:39;;;;;;;14.20;6.00;;;;;;;18.50;67.84;98282.66;5073171;28;20035;-61
2022/06/21 08:51:23;;;;;;;9.30;5.72;;;;;;;18.52;70.06;98284.22;5053079;28;20083;-61
2022/06/21 08:54:08;;;;;;;15.57;6.03;;;;;;;18.49;68.79;98284.47;5063890;28;20048;-61
2022/06/21 08:56:55;;;;;;;11.05;5.80;;;;;;;18.49;72.02;98286.25;5065881;28;20409;-61
2022/06/21 08:59:39;;;;;;;10.18;5.72;;;;;;;18.51;71.79;98293.03;5042729;28;20149;-61
2022/06/21 09:02:19;;;;;;;9.27;5.18;;;;;;;18.53;71.24;98295.56;5061762;28;20025;-61
2022/06/21 09:05:11;;;;;;;9.32;4.68;;;;;;;18.43;69.69;98291.00;5061750;28;20415;-61
2022/06/21 09:07:43;;;;;;;10.13;4.63;;;;;;;18.49;69.21;98289.72;5054890;28;20034;-62
2022/06/21 09:10:11;;;;;;;;;;;;;;;18.48;69.66;98288.03;5037983;28;20081;-61
2022/06/21 09:12:46;;;;;;;7.25;4.65;;;;;;;18.54;69.80;98282.34;5068289;28;20491;-62
2022/06/21 09:15:22;;;;;;;9.00;4.40;;;;;;;18.51;69.64;98287.78;5058356;28;20040;-61
2022/06/21 09:18:09;;;;;;;7.70;4.57;;;;;;;18.51;68.98;98290.41;5053059;28;20025;-60
2022/06/21 09:20:47;;;;;;;9.65;4.78;;;;;;;18.55;69.93;98304.13;5049211;28;20017;-60
2022/06/21 09:23:25;;;;;;;10.98;5.35;;;;;;;18.53;70.19;98287.69;5052098;28;20060;-60
2022/06/21 09:26:09;;;;;;;10.00;6.18;;;;;;;18.31;70.89;98291.13;5052333;28;20033;-60
2022/06/21 09:29:03;;;;;;;13.18;6.97;;;;;;;18.18;71.37;98275.47;5048047;28;20505;-59
2022/06/21 09:31:48;;;;;;;8.90;5.80;;;;;;;18.26;71.85;98287.06;5055264;28;20036;-60
2022/06/21 09:34:28;;;;;;;16.05;7.00;;;;;;;18.14;71.33;98293.22;5050870;28;20381;-60
2022/06/21 09:37:04;;;;;;;11.85;6.63;;;;;;;18.14;71.24;98293.22;5052341;28;20031;-60
2022/06/21 09:39:42;;;;;;;17.80;6.70;;;;;;;18.17;71.65;98293.00;5050692;28;20494;-60
2022/06/21 09:42:31;;;;;;;12.10;7.20;;;;;;;18.13;71.96;98295.94;5042372;28;20045;-61
2022/06/21 09:45:11;;;;;;;17.25;6.72;;;;;;;17.84;72.69;98241.31;5050042;28;20382;-60
2022/06/21 09:47:54;;;;;;;12.82;6.55;;;;;;;18.03;73.39;98256.53;5042523;28;20494;-60
2022/06/21 09:50:21;;;;;;;13.88;6.32;;;;;;;18.30;72.90;98285.03;5045404;28;20384;-60
2022/06/21 09:53:21;;;;;;;11.48;6.40;;;;;;;18.39;73.92;98279.09;5039529;28;20115;-60
2022/06/21 09:56:07;;;;;;;14.60;7.47;;;;;;;18.38;74.48;98281.81;5038282;28;20148;-60
2022/06/21 09:58:43;;;;;;;11.65;6.85;;;;;;;18.37;74.10;98275.75;5035312;28;20036;-61
2022/06/21 10:01:22;;;;;;;12.85;6.43;;;;;;;18.25;73.64;98255.72;5051168;28;20120;-63
2022/06/21 10:03:56;;;;;;;10.68;5.60;;;;;;;18.40;73.09;98286.00;5041935;28;20040;-61
2022/06/21 10:06:34;;;;;;;10.73;6.03;;;;;;;18.32;73.61;98283.13;5040965;28;20026;-61
2022/06/21 10:09:34;;;;;;;9.70;5.88;;;;;;;18.00;75.95;98228.78;5037110;28;20041;-61
2022/06/21 10:12:44;;;;;;;12.63;6.50;;;;;;;18.31;77.81;98278.81;5034132;28;20517;-61
2022/06/21 10:15:34;;;;;;;11.25;6.72;;;;;;;18.29;78.10;98272.88;4996690;28;20127;-60
2022/06/21 10:18:02;;;;;;;12.65;7.03;;;;;;;18.22;78.00;98282.16;5043308;28;20045;-61
2022/06/21 10:20:53;;;;;;;11.82;5.82;;;;;;;18.23;78.16;98278.59;5043505;28;20033;-62
2022/06/21 10:23:51;;;;;;;9.73;5.30;;;;;;;18.23;78.58;98284.66;5046166;28;20490;-61
2022/06/21 10:26:33;;;;;;;8.20;5.57;;;;;;;18.21;78.92;98288.34;5022649;28;20045;-62
2022/06/21 10:29:18;;;;;;;9.18;5.85;;;;;;;18.21;75.72;98283.09;5048440;28;20060;-61
2022/06/21 10:32:02;;;;;;;11.32;5.32;;;;;;;18.18;75.88;98285.97;5044810;28;20032;-61
2022/06/21 10:34:34;;;;;;;10.18;5.82;;;;;;;18.17;78.31;98289.53;5036205;28;20105;-61
2022/06/21 10:37:23;;;;;;;9.48;5.72;;;;;;;18.17;79.09;98289.53;5038864;28;20033;-62
2022/06/21 10:40:02;;;;;;;9.50;5.85;;;;;;;17.89;82.36;98234.78;5042719;28;20056;-61
2022/06/21 10:42:47;;;;;;;26.27;16.70;;;;;;;18.24;81.77;98281.09;5039342;28;20636;-60
2022/06/21 10:45:20;;;;;;;16.80;9.23;;;;;;;18.31;81.35;98280.63;5049702;28;20102;-61
2022/06/21 10:48:03;;;;;;;11.85;6.25;;;;;;;18.26;80.00;98279.19;5055492;28;20090;-61
2022/06/21 10:50:52;;;;;;;11.20;7.38;;;;;;;18.27;79.79;98283.50;5063322;28;20032;-62
2022/06/21 10:53:48;;;;;;;12.10;6.95;;;;;;;18.27;80.06;98273.00;5038826;28;20415;-61
2022/06/21 11:02:54;;;;;;;10.65;6.85;;;;;;;18.31;81.08;98265.72;5051928;28;20028;-63
2022/06/21 11:05:31;;;;;;;13.10;7.20;;;;;;;18.28;80.94;98264.19;5049071;28;20040;-63
2022/06/21 11:07:57;;;;;;;9.70;6.97;;;;;;;18.30;79.48;98264.06;5049766;28;20382;-63
2022/06/21 11:10:28;;;;;;;13.88;6.82;;;;;;;18.27;79.74;98259.91;5043220;28;20031;-64
2022/06/21 11:12:56;;;;;;;10.73;6.10;;;;;;;18.20;79.78;98234.25;5047967;28;20028;-63
2022/06/21 11:15:43;;;;;;;9.98;7.10;;;;;;;18.34;80.96;98244.53;5052065;28;20447;-62
2022/06/21 11:18:33;;;;;;;9.68;7.22;;;;;;;18.38;79.55;98250.38;5044014;28;20184;-63
2022/06/21 11:21:20;;;;;;;13.48;7.53;;;;;;;18.38;79.87;98253.81;5045811;28;20049;-62
2022/06/21 11:24:11;;;;;;;11.05;7.35;;;;;;;18.35;79.84;98248.81;5050223;28;20094;-63
2022/06/21 11:26:37;;;;;;;7.45;5.80;;;;;;;18.36;79.07;98255.72;5054651;28;20033;-62
2022/06/21 11:29:17;;;;;;;10.05;6.07;;;;;;;18.37;78.28;98257.41;5054840;28;20047;-61
2022/06/21 11:31:51;;;;;;;10.38;5.70;;;;;;;18.26;75.63;98257.41;5048482;28;20076;-61
2022/06/21 11:34:29;;;;;;;6.65;4.38;;;;;;;18.27;73.93;98257.28;5044396;28;20402;-62
2022/06/21 11:37:00;;;;;;;6.75;4.05;;;;;;;18.30;71.82;98264.06;5054662;28;20044;-62
2022/06/21 11:39:36;;;;;;;7.65;4.25;;;;;;;18.01;72.16;98212.09;5070223;28;20052;-62
2022/06/21 11:42:16;;;;;;;8.60;5.00;;;;;;;18.00;73.58;98225.28;5055247;28;20486;-63
2022/06/21 11:45:14;;;;;;;8.07;4.50;;;;;;;18.27;75.88;98264.28;5052377;28;20482;-63
2022/06/21 11:48:01;;;;;;;5.75;4.03;;;;;;;18.30;76.54;98261.47;5062521;28;20078;-62
2022/06/21 11:51:04;;;;;;;8.77;4.95;;;;;;;18.32;76.84;98267.41;5035019;28;20038;-61
2022/06/21 11:53:45;;;;;;;7.55;5.38;;;;;;;18.35;78.61;98267.16;5054676;28;20405;-62
2022/06/21 11:56:20;;;;;;;8.45;5.80;;;;;;;18.35;78.60;98264.53;5062419;28;20177;-62
2022/06/21 11:58:58;;;;;;;8.65;5.03;;;;;;;18.36;78.54;98258.34;5064692;28;20027;-62
2022/06/21 12:01:53;;;;;;;8.63;4.80;;;;;;;18.31;77.78;98252.63;5054371;28;20033;-62
2022/06/21 12:04:29;;;;;;;6.30;4.50;;;;;;;18.22;76.31;98255.97;5052585;28;20021;-63
2022/06/21 12:07:28;;;;;;;6.50;4.50;;;;;;;18.22;75.24;98256.78;5033145;28;20033;-62
2022/06/21 12:10:08;;;;;;;6.68;4.53;;;;;;;18.22;74.81;98253.34;5033296;28;20052;-62
2022/06/21 12:12:47;;;;;;;8.13;4.07;;;;;;;18.00;74.98;98218.28;5070690;28;20383;-62
2022/06/21 12:15:35;;;;;;;7.40;4.35;;;;;;;18.24;75.24;98254.91;5039819;28;20025;-62
2022/06/21 12:18:30;;;;;;;5.97;4.53;;;;;;;18.27;77.03;98233.69;5042676;28;20061;-62
2022/06/21 12:21:03;;;;;;;7.78;4.55;;;;;;;18.30;77.74;98248.34;5043789;28;20051;-61
2022/06/21 12:23:41;;;;;;;8.45;4.93;;;;;;;18.29;76.93;98228.31;5029299;28;20078;-61
2022/06/21 12:26:11;;;;;;;11.02;5.57;;;;;;;17.99;73.38;98181.75;5039965;28;20033;-62
2022/06/21 12:28:38;;;;;;;8.32;5.25;;;;;;;18.26;73.50;98228.56;5049706;28;20030;-61
2022/06/21 12:31:20;;;;;;;10.25;6.53;;;;;;;17.97;73.15;98178.38;5043671;28;20032;-62
2022/06/21 12:33:49;;;;;;;;;;;;;;;18.29;71.96;98218.66;5043439;28;20025;-62